Terminal Aerodrome Forecast
Issued by NWS Milwaukee/Sullivan, WI

Home | Current Version | Previous Version | Text Only | Print | Product List | Glossary On
Versions: 1 2 3 4 5 6 7 8 9 10 11 12 13 14 15 16 17 18 19 20 21
000
FTUS43 KMKX 210524
TAFMSN
TAF
KMSN 210524Z 2106/2206 18008KT 4SM -SHRA BR SCT010 BKN035 OVC090
     FM210730 20006KT 5SM -SHRA BR SCT008 OVC020
     FM210900 22005KT 3SM BR OVC008
     FM211100 27008KT 5SM BR BKN015
     FM211400 29008KT 4SM BR SCT025
     FM211500 30007KT P6SM SCT080
     FM212000 24007KT P6SM SKC
     FM212300 21006KT P6SM FEW250=

USA.gov is the U.S. government's official web portal to all federal, state and local government web resources and services.